createdAt,value
2022-08-28T00:01:24.804Z,100954.66
2022-08-28T00:03:51.361Z,100957.50
2022-08-28T00:06:17.886Z,100948.19
2022-08-28T00:08:44.509Z,100961.06
2022-08-28T00:11:11.097Z,100962.06
2022-08-28T00:13:37.679Z,100955.25
2022-08-28T00:16:04.731Z,100963.09
2022-08-28T00:18:32.750Z,100961.25
2022-08-28T00:21:00.172Z,100962.28
2022-08-28T00:23:28.419Z,100964.13
2022-08-28T00:26:09.056Z,100960.78
2022-08-28T00:28:35.585Z,100962.78
2022-08-28T00:31:02.265Z,100967.97
2022-08-28T00:33:32.212Z,100967.97
2022-08-28T00:36:01.253Z,100968.13
2022-08-28T00:38:29.577Z,100971.00
2022-08-28T00:41:00.316Z,100964.00
2022-08-28T00:43:34.836Z,100973.50
2022-08-28T00:46:01.954Z,100969.16
2022-08-28T00:48:28.847Z,100966.66
2022-08-28T00:50:56.873Z,100961.38
2022-08-28T00:53:32.871Z,100969.22
2022-08-28T00:56:04.186Z,100974.19
2022-08-28T00:58:37.986Z,100983.06
2022-08-28T01:01:04.963Z,100979.53
2022-08-28T01:03:31.617Z,100981.59
2022-08-28T01:05:58.336Z,100978.25
2022-08-28T01:08:24.926Z,100980.47
2022-08-28T01:11:01.407Z,100981.47
2022-08-28T01:13:29.766Z,100986.94
2022-08-28T01:15:56.982Z,100979.63
2022-08-28T01:18:25.010Z,100979.47
2022-08-28T01:20:58.906Z,100983.81
2022-08-28T01:23:36.841Z,100983.81
2022-08-28T01:26:10.746Z,100977.13
2022-08-28T01:28:38.759Z,100981.00
2022-08-28T01:31:05.356Z,100977.66
2022-08-28T01:33:31.966Z,100980.16
2022-08-28T01:35:58.470Z,100976.34
2022-08-28T01:38:26.899Z,100972.69
2022-08-28T01:40:57.365Z,100975.16
2022-08-28T01:46:06.924Z,100964.69
2022-08-28T01:48:36.004Z,100976.06
2022-08-28T01:51:03.120Z,100989.06
2022-08-28T01:53:32.513Z,100980.38
2022-08-28T01:56:01.784Z,100994.78
2022-08-28T01:58:30.105Z,100986.09
2022-08-28T02:00:57.288Z,100987.94
2022-08-28T02:03:24.345Z,100984.41
2022-08-28T02:05:51.087Z,100989.75
2022-08-28T02:08:17.668Z,100982.09
2022-08-28T02:10:44.425Z,100988.47
2022-08-28T02:13:12.931Z,100986.97
2022-08-28T02:15:41.652Z,100997.31
2022-08-28T02:18:08.528Z,100989.47
2022-08-28T02:20:35.945Z,100993.50
2022-08-28T02:23:02.549Z,100992.00
2022-08-28T02:25:29.387Z,100990.69
2022-08-28T02:27:56.566Z,100986.69
2022-08-28T02:30:24.613Z,100986.84
2022-08-28T02:32:51.751Z,100996.88
2022-08-28T02:35:20.913Z,100996.88
2022-08-28T02:37:47.753Z,100998.50
2022-08-28T02:40:16.518Z,101002.03
2022-08-28T02:42:43.624Z,100990.69
2022-08-28T02:45:12.559Z,100990.84
2022-08-28T02:47:42.710Z,100986.84
2022-08-28T02:50:11.457Z,100979.34
2022-08-28T02:52:38.594Z,100992.19
2022-08-28T02:55:06.542Z,100995.91
2022-08-28T02:57:33.485Z,100992.56
2022-08-28T03:00:00.001Z,100992.72
2022-08-28T03:02:26.665Z,100988.56
2022-08-28T03:04:54.590Z,100993.25
2022-08-28T03:07:21.126Z,100967.91
2022-08-28T03:09:47.669Z,100989.03
2022-08-28T03:12:14.214Z,100969.41
2022-08-28T03:14:40.732Z,100988.91
2022-08-28T03:17:07.343Z,100990.44
2022-08-28T03:19:34.522Z,101004.16
2022-08-28T03:22:02.464Z,100990.59
2022-08-28T03:24:29.008Z,100999.59
2022-08-28T03:26:55.546Z,100981.28
2022-08-28T03:29:22.149Z,100997.97
2022-08-28T03:31:48.819Z,100993.63
2022-08-28T03:34:15.368Z,100990.97
2022-08-28T03:36:41.919Z,100993.47
2022-08-28T03:39:10.214Z,100995.47
2022-08-28T03:41:36.765Z,100997.31
2022-08-28T03:44:03.770Z,100995.63
2022-08-28T03:46:31.998Z,101007.16
2022-08-28T03:48:59.357Z,100998.97
2022-08-28T03:51:34.058Z,101006.97
2022-08-28T03:54:01.975Z,101007.31
2022-08-28T03:56:30.516Z,101013.66
2022-08-28T03:58:59.492Z,101010.97
2022-08-28T04:01:26.295Z,100982.34
2022-08-28T04:03:53.008Z,101008.16
2022-08-28T04:06:19.978Z,101009.16
2022-08-28T04:08:47.374Z,101005.63
2022-08-28T04:11:13.942Z,101017.34
2022-08-28T04:13:41.966Z,101016.69
2022-08-28T04:16:11.743Z,101011.50
2022-08-28T04:18:40.777Z,101016.84
2022-08-28T04:21:09.130Z,101018.69
2022-08-28T04:23:37.481Z,101012.69
2022-08-28T04:26:04.514Z,101020.72
2022-08-28T04:28:31.401Z,101019.03
2022-08-28T04:30:59.748Z,101018.72
2022-08-28T04:33:28.457Z,101018.88
2022-08-28T04:35:55.912Z,101018.38
2022-08-28T04:38:22.776Z,101019.72
2022-08-28T04:40:49.569Z,101020.06
2022-08-28T04:43:16.210Z,101022.25
2022-08-28T04:45:45.262Z,101013.72
2022-08-28T04:48:14.430Z,101033.09
2022-08-28T04:50:41.656Z,101034.09
2022-08-28T04:53:08.223Z,101033.41
2022-08-28T04:55:53.623Z,101040.59
2022-08-28T04:58:23.741Z,101046.75
2022-08-28T05:00:52.319Z,101052.25
2022-08-28T05:03:21.028Z,101039.56
2022-08-28T05:05:50.797Z,101045.59
2022-08-28T05:08:19.133Z,101054.13
2022-08-28T05:10:46.374Z,101054.13
2022-08-28T05:13:14.517Z,101063.63
2022-08-28T05:15:41.857Z,101065.28
2022-08-28T05:18:08.684Z,101066.13
2022-08-28T05:20:37.339Z,101074.81
2022-08-28T05:23:04.877Z,101070.28
2022-08-28T05:25:35.031Z,101073.09
2022-08-28T05:28:01.820Z,101074.63
2022-08-28T05:30:28.353Z,101069.13
2022-08-28T05:32:54.940Z,101072.44
2022-08-28T05:35:22.142Z,101075.63
2022-08-28T05:37:50.434Z,101077.09
2022-08-28T05:40:17.135Z,101083.44
2022-08-28T05:42:43.785Z,101085.94
2022-08-28T05:45:10.634Z,101085.63
2022-08-28T05:47:37.238Z,101082.59
2022-08-28T05:50:04.339Z,101086.09
2022-08-28T05:52:30.938Z,101085.41
2022-08-28T05:54:58.806Z,101075.41
2022-08-28T05:57:25.425Z,101097.94
2022-08-28T05:59:52.112Z,101096.56
2022-08-28T06:02:18.726Z,101099.59
2022-08-28T06:04:45.439Z,101095.75
2022-08-28T06:07:11.993Z,101094.56
2022-08-28T06:09:38.675Z,101110.09
2022-08-28T06:12:07.106Z,101102.03
2022-08-28T06:14:34.497Z,101108.38
2022-08-28T06:17:02.005Z,101090.66
2022-08-28T06:19:30.591Z,101111.19
2022-08-28T06:22:00.013Z,101114.34
2022-08-28T06:24:28.348Z,101109.31
2022-08-28T06:26:58.108Z,101111.44
2022-08-28T06:29:27.758Z,101110.44
2022-08-28T06:31:56.859Z,101117.78
2022-08-28T06:34:23.523Z,101115.59
2022-08-28T06:36:53.828Z,101113.25
2022-08-28T06:39:21.896Z,101125.94
2022-08-28T06:41:48.568Z,101125.78
2022-08-28T06:44:18.621Z,101114.69
2022-08-28T06:46:48.875Z,101120.38
2022-08-28T06:49:15.437Z,101131.41
2022-08-28T06:51:42.126Z,101132.03
2022-08-28T06:54:09.103Z,101124.53
2022-08-28T06:56:35.747Z,101135.38
2022-08-28T06:59:02.527Z,101138.06
2022-08-28T07:01:31.508Z,101133.91
2022-08-28T07:04:01.084Z,101138.91
2022-08-28T07:06:30.536Z,101133.91
2022-08-28T07:08:57.092Z,101130.69
2022-08-28T07:11:25.965Z,101134.19
2022-08-28T07:13:54.083Z,101141.66
2022-08-28T07:16:22.696Z,101142.41
2022-08-28T07:18:49.594Z,101140.88
2022-08-28T07:21:17.808Z,101144.38
2022-08-28T07:23:44.952Z,101139.03
2022-08-28T07:26:15.344Z,101129.94
2022-08-28T07:28:42.109Z,101129.56
2022-08-28T07:31:10.977Z,101137.31
2022-08-28T07:33:38.035Z,101135.25
2022-08-28T07:36:06.326Z,101130.34
2022-08-28T07:38:34.783Z,101136.31
2022-08-28T07:41:01.395Z,101139.16
2022-08-28T07:43:27.991Z,101147.13
2022-08-28T07:45:58.371Z,101153.91
2022-08-28T07:48:25.039Z,101144.75
2022-08-28T07:50:51.985Z,101152.72
2022-08-28T07:53:18.551Z,101152.97
2022-08-28T07:55:49.418Z,101138.00
2022-08-28T07:58:16.198Z,101144.84
2022-08-28T08:00:42.746Z,101152.53
2022-08-28T08:03:09.433Z,101160.78
2022-08-28T08:05:36.041Z,101164.31
2022-08-28T08:08:03.504Z,101162.56
2022-08-28T08:10:33.931Z,101167.84
2022-08-28T08:13:02.860Z,101164.81
2022-08-28T08:15:31.365Z,101165.53
2022-08-28T08:17:58.108Z,101168.69
2022-08-28T08:20:24.675Z,101170.06
2022-08-28T08:22:51.241Z,101172.91
2022-08-28T08:25:17.869Z,101172.44
2022-08-28T08:27:44.506Z,101165.03
2022-08-28T08:30:13.014Z,101162.88
2022-08-28T08:32:39.610Z,101172.94
2022-08-28T08:35:06.601Z,101168.81
2022-08-28T08:37:33.216Z,101172.03
2022-08-28T08:39:59.805Z,101173.06
2022-08-28T08:42:29.855Z,101165.97
2022-08-28T08:44:58.547Z,101180.31
2022-08-28T08:47:36.619Z,101161.28
2022-08-28T08:50:07.808Z,101173.59
2022-08-28T08:52:49.985Z,101178.50
2022-08-28T08:55:22.329Z,101178.41
2022-08-28T08:57:56.932Z,101187.16
2022-08-28T09:00:24.532Z,101180.50
2022-08-28T09:03:00.248Z,101182.69
2022-08-28T09:05:40.258Z,101175.16
2022-08-28T09:08:12.490Z,101180.13
2022-08-28T09:10:47.574Z,101179.56
2022-08-28T09:13:25.874Z,101185.31
2022-08-28T09:15:52.696Z,101185.06
2022-08-28T09:18:23.810Z,101181.53
2022-08-28T09:20:52.576Z,101187.56
2022-08-28T09:23:20.966Z,101189.22
2022-08-28T09:25:55.547Z,101185.22
2022-08-28T09:28:25.006Z,101184.22
2022-08-28T09:30:58.929Z,101190.50
2022-08-28T09:33:36.841Z,101197.44
2022-08-28T09:36:28.555Z,101198.56
2022-08-28T09:39:11.340Z,101189.84
2022-08-28T09:41:52.012Z,101188.41
2022-08-28T09:44:18.591Z,101186.44
2022-08-28T09:46:48.462Z,101194.75
2022-08-28T09:49:23.684Z,101191.28
2022-08-28T09:51:50.336Z,101196.50
2022-08-28T09:54:21.806Z,101191.53
2022-08-28T09:56:49.745Z,101186.00
2022-08-28T09:59:18.983Z,101188.34
2022-08-28T10:01:58.750Z,101179.66
2022-08-28T10:04:54.383Z,101195.44
2022-08-28T10:07:29.768Z,101192.03
2022-08-28T10:10:09.631Z,101190.06
2022-08-28T10:12:42.974Z,101189.28
2022-08-28T10:15:17.889Z,101197.06
2022-08-28T10:18:04.192Z,101189.97
2022-08-28T10:20:44.805Z,101193.03
2022-08-28T10:23:19.243Z,101171.03
2022-08-28T10:25:55.501Z,101183.63
2022-08-28T10:28:34.263Z,101184.47
2022-08-28T10:31:13.007Z,101190.16
2022-08-28T10:33:55.821Z,101187.22
2022-08-28T10:36:34.780Z,101185.19
2022-08-28T10:39:14.518Z,101178.34
2022-08-28T10:41:45.592Z,101180.47
2022-08-28T10:44:17.806Z,101177.59
2022-08-28T10:46:49.446Z,101177.81
2022-08-28T10:49:23.283Z,101184.50
2022-08-28T10:51:54.872Z,101162.91
2022-08-28T10:54:27.570Z,101178.03
2022-08-28T10:56:59.750Z,101184.25
2022-08-28T10:59:32.223Z,101185.72
2022-08-28T11:01:59.838Z,101171.00
2022-08-28T11:04:29.371Z,101181.59
2022-08-28T11:07:01.004Z,101183.44
2022-08-28T11:09:35.322Z,101187.63
2022-08-28T11:12:05.288Z,101181.38
2022-08-28T11:14:34.966Z,101182.84
2022-08-28T11:17:04.577Z,101169.56
2022-08-28T11:19:56.537Z,101180.97
2022-08-28T11:22:28.426Z,101172.66
2022-08-28T11:25:09.702Z,101172.00
2022-08-28T11:27:37.848Z,101167.81
2022-08-28T11:30:30.977Z,101176.06
2022-08-28T11:33:04.299Z,101173.84
2022-08-28T11:35:45.072Z,101175.53
2022-08-28T11:38:51.564Z,101170.69
2022-08-28T11:41:20.774Z,101177.56
2022-08-28T11:43:49.087Z,101174.00
2022-08-28T11:46:34.879Z,101173.41
2022-08-28T11:49:03.422Z,101178.53
2022-08-28T11:51:56.141Z,101184.75
2022-08-28T11:54:47.056Z,101181.03
2022-08-28T11:57:17.922Z,101171.75
2022-08-28T12:00:06.796Z,101173.78
2022-08-28T12:02:49.845Z,101171.00
2022-08-28T12:05:38.691Z,101184.22
2022-08-28T12:08:05.552Z,101176.16
2022-08-28T12:10:57.586Z,101170.03
2022-08-28T12:13:52.649Z,101185.13
2022-08-28T12:16:19.444Z,101189.09
2022-08-28T12:19:04.047Z,101188.19
2022-08-28T12:21:37.333Z,101167.47
2022-08-28T12:24:14.720Z,101178.97
2022-08-28T12:26:47.589Z,101173.34
2022-08-28T12:29:27.827Z,101169.25
2022-08-28T12:32:07.308Z,101163.28
2022-08-28T12:34:46.342Z,101160.13
2022-08-28T12:37:39.874Z,101162.22
2022-08-28T12:40:21.987Z,101155.59
2022-08-28T12:42:55.442Z,101157.84
2022-08-28T12:45:29.669Z,101157.63
2022-08-28T12:47:59.575Z,101160.41
2022-08-28T12:50:32.458Z,101146.38
2022-08-28T12:53:02.029Z,101165.75
2022-08-28T12:55:28.925Z,101150.13
2022-08-28T12:57:57.211Z,101155.41
2022-08-28T13:00:26.222Z,101158.88
2022-08-28T13:02:54.805Z,101143.88
2022-08-28T13:05:32.212Z,101133.88
2022-08-28T13:08:01.137Z,101143.81
2022-08-28T13:10:30.663Z,101147.00
2022-08-28T13:13:05.459Z,101134.09
2022-08-28T13:15:47.629Z,101135.00
2022-08-28T13:18:33.839Z,101146.09
2022-08-28T13:21:34.081Z,101134.78
2022-08-28T13:24:26.250Z,101117.97
2022-08-28T13:27:02.859Z,101125.97
2022-08-28T13:29:31.634Z,101137.84
2022-08-28T13:32:00.082Z,101134.69
2022-08-28T13:34:28.248Z,101119.28
2022-08-28T13:36:57.004Z,101119.84
2022-08-28T13:39:23.825Z,101125.41
2022-08-28T13:41:53.799Z,101124.06
2022-08-28T13:44:34.307Z,101132.56
2022-08-28T13:47:03.477Z,101124.06
2022-08-28T13:49:30.108Z,101123.25
2022-08-28T13:51:58.819Z,101119.97
2022-08-28T13:54:25.996Z,101115.59
2022-08-28T13:56:54.930Z,101119.00
2022-08-28T13:59:22.132Z,101090.19
2022-08-28T14:01:54.503Z,101106.22
2022-08-28T14:04:21.212Z,101107.88
2022-08-28T14:06:48.267Z,101083.94
2022-08-28T14:09:14.929Z,101105.53
2022-08-28T14:11:41.658Z,101097.50
2022-08-28T14:14:08.349Z,101100.34
2022-08-28T14:16:39.585Z,101084.88
2022-08-28T14:19:08.218Z,101101.63
2022-08-28T14:21:37.066Z,101093.56
2022-08-28T14:24:04.768Z,101087.44
2022-08-28T14:26:31.518Z,101094.19
2022-08-28T14:28:58.663Z,101093.97
2022-08-28T14:31:26.573Z,101090.09
2022-08-28T14:33:53.723Z,101077.09
2022-08-28T14:36:24.279Z,101085.56
2022-08-28T14:38:54.210Z,101085.81
2022-08-28T14:41:22.054Z,101092.06
2022-08-28T14:43:48.620Z,101091.66
2022-08-28T14:46:16.312Z,101081.34
2022-08-28T14:48:42.904Z,101087.94
2022-08-28T14:51:09.596Z,101093.97
2022-08-28T14:53:37.485Z,101085.22
2022-08-28T14:56:06.338Z,101071.84
2022-08-28T14:58:33.691Z,101096.19
2022-08-28T15:01:01.131Z,101090.91
2022-08-28T15:03:28.136Z,101084.31
2022-08-28T15:06:00.113Z,101082.59
2022-08-28T15:08:26.850Z,101089.91
2022-08-28T15:10:55.381Z,101083.78
2022-08-28T15:13:22.026Z,101078.13
2022-08-28T15:15:48.681Z,101074.38
2022-08-28T15:18:15.769Z,101076.91
2022-08-28T15:20:45.134Z,101077.34
2022-08-28T15:23:13.527Z,101078.63
2022-08-28T15:25:40.656Z,101084.63
2022-08-28T15:28:09.627Z,101084.81
2022-08-28T15:30:36.356Z,101065.19
2022-08-28T15:33:03.196Z,101076.34
2022-08-28T15:35:29.731Z,101076.97
2022-08-28T15:37:56.412Z,101074.50
2022-08-28T15:40:23.224Z,101072.66
2022-08-28T15:42:49.898Z,101067.38
2022-08-28T15:45:17.834Z,101079.66
2022-08-28T15:47:44.496Z,101077.41
2022-08-28T15:50:11.428Z,101073.25
2022-08-28T15:52:38.205Z,101074.00
2022-08-28T15:55:05.399Z,101072.13
2022-08-28T15:57:32.479Z,101079.50
2022-08-28T15:59:59.046Z,101083.44
2022-08-28T16:02:27.156Z,101074.16
2022-08-28T16:04:54.113Z,101063.06
2022-08-28T16:07:22.146Z,101067.88
2022-08-28T16:09:49.259Z,101069.41
2022-08-28T16:12:16.332Z,101075.97
2022-08-28T16:14:42.942Z,101072.88
2022-08-28T16:17:11.081Z,101072.75
2022-08-28T16:19:40.060Z,101067.16
2022-08-28T16:22:07.370Z,101057.06
2022-08-28T16:24:33.960Z,101067.13
2022-08-28T16:27:00.613Z,101053.47
2022-08-28T16:29:27.173Z,101062.31
2022-08-28T16:31:53.878Z,101060.34
2022-08-28T16:34:21.009Z,101069.78
2022-08-28T16:36:49.021Z,101057.56
2022-08-28T16:39:15.786Z,101073.59
2022-08-28T16:41:42.994Z,101068.72
2022-08-28T16:44:09.591Z,101076.50
2022-08-28T16:46:36.346Z,101075.31
2022-08-28T16:49:03.845Z,101063.25
2022-08-28T16:51:30.787Z,101074.06
2022-08-28T16:53:58.741Z,101073.00
2022-08-28T16:56:25.438Z,101074.88
2022-08-28T16:58:53.025Z,101070.47
2022-08-28T17:01:21.421Z,101069.34
2022-08-28T17:03:51.866Z,101070.34
2022-08-28T17:06:20.631Z,101064.28
2022-08-28T17:08:47.326Z,101065.78
2022-08-28T17:11:15.840Z,101067.94
2022-08-28T17:13:42.970Z,101066.16
2022-08-28T17:16:10.364Z,101059.38
2022-08-28T17:18:39.098Z,101057.31
2022-08-28T17:21:16.609Z,101059.22
2022-08-28T17:23:43.337Z,101071.44
2022-08-28T17:26:10.299Z,101067.66
2022-08-28T17:28:38.528Z,101070.94
2022-08-28T17:31:05.377Z,101073.03
2022-08-28T17:33:31.944Z,101075.22
2022-08-28T17:35:58.490Z,101080.78
2022-08-28T17:38:26.081Z,101079.78
2022-08-28T17:40:52.634Z,101081.81
2022-08-28T17:43:19.284Z,101081.03
2022-08-28T17:45:47.436Z,101074.47
2022-08-28T17:48:14.093Z,101088.66
2022-08-28T17:50:40.762Z,101086.69
2022-08-28T17:53:07.310Z,101094.94
2022-08-28T17:55:33.998Z,101088.19
2022-08-28T17:58:00.586Z,101097.66
2022-08-28T18:00:27.159Z,101092.94
2022-08-28T18:02:55.045Z,101097.78
2022-08-28T18:05:21.873Z,101099.09
2022-08-28T18:07:48.603Z,101078.63
2022-08-28T18:10:15.480Z,101096.66
2022-08-28T18:12:42.127Z,101107.91
2022-08-28T18:15:10.281Z,101098.59
2022-08-28T18:17:37.449Z,101102.75
2022-08-28T18:20:07.681Z,101104.00
2022-08-28T18:22:34.647Z,101093.78
2022-08-28T18:25:01.209Z,101111.59
2022-08-28T18:27:27.960Z,101107.63
2022-08-28T18:29:54.502Z,101084.06
2022-08-28T18:32:21.051Z,101106.44
2022-08-28T18:34:47.755Z,101111.13
2022-08-28T18:37:16.259Z,101110.25
2022-08-28T18:39:43.391Z,101108.28
2022-08-28T18:42:11.162Z,101106.31
2022-08-28T18:44:37.757Z,101131.94
2022-08-28T18:47:04.562Z,101124.28
2022-08-28T18:49:31.157Z,101128.53
2022-08-28T18:51:57.721Z,101141.81
2022-08-28T18:54:25.625Z,101139.97
2022-08-28T18:56:57.360Z,101130.94
2022-08-28T18:59:28.157Z,101153.09
2022-08-28T19:01:54.786Z,101144.97
2022-08-28T19:04:21.489Z,101153.94
2022-08-28T19:06:48.072Z,101157.50
2022-08-28T19:09:19.203Z,101160.31
2022-08-28T19:11:48.934Z,101167.88
2022-08-28T19:14:15.680Z,101174.84
2022-08-28T19:16:42.313Z,101172.50
2022-08-28T19:19:08.999Z,101168.41
2022-08-28T19:21:36.717Z,101177.41
2022-08-28T19:24:03.630Z,101172.50
2022-08-28T19:26:30.874Z,101142.56
2022-08-28T19:28:59.267Z,101164.69
2022-08-28T19:31:27.049Z,101176.09
2022-08-28T19:33:54.148Z,101178.31
2022-08-28T19:36:21.105Z,101181.38
2022-08-28T19:38:47.726Z,101172.84
2022-08-28T19:41:14.448Z,101174.56
2022-08-28T19:43:43.022Z,101185.28
2022-08-28T19:46:18.482Z,101186.97
2022-08-28T19:48:47.734Z,101189.63
2022-08-28T19:51:17.593Z,101171.78
2022-08-28T19:53:54.645Z,101204.69
2022-08-28T19:56:23.772Z,101202.84
2022-08-28T19:58:50.614Z,101203.19
2022-08-28T20:01:18.660Z,101198.94
2022-08-28T20:03:45.212Z,101211.63
2022-08-28T20:06:11.882Z,101222.97
2022-08-28T20:08:38.460Z,101225.44
2022-08-28T20:11:05.090Z,101229.25
2022-08-28T20:13:31.775Z,101220.06
2022-08-28T20:16:03.893Z,101231.88
2022-08-28T20:18:32.012Z,101228.00
2022-08-28T20:20:58.882Z,101224.59
2022-08-28T20:23:25.543Z,101229.28
2022-08-28T20:25:52.930Z,101233.56
2022-08-28T20:28:19.909Z,101230.69
2022-08-28T20:30:46.698Z,101235.97
2022-08-28T20:33:13.871Z,101206.81
2022-08-28T20:35:41.832Z,101227.72
2022-08-28T20:38:08.504Z,101232.00
2022-08-28T20:40:35.130Z,101237.25
2022-08-28T20:43:01.941Z,101244.91
2022-08-28T20:45:28.586Z,101241.50
2022-08-28T20:47:55.252Z,101240.13
2022-08-28T20:50:21.837Z,101237.56
2022-08-28T20:52:49.873Z,101226.53
2022-08-28T20:55:16.470Z,101241.34
2022-08-28T20:57:43.067Z,101236.63
2022-08-28T21:00:11.235Z,101223.19
2022-08-28T21:02:38.111Z,101245.00
2022-08-28T21:05:05.735Z,101242.13
2022-08-28T21:07:32.438Z,101231.47
2022-08-28T21:10:07.199Z,101249.97
2022-08-28T21:12:35.542Z,101248.47
2022-08-28T21:15:02.850Z,101229.81
2022-08-28T21:17:30.708Z,101253.03
2022-08-28T21:19:59.532Z,101257.28
2022-08-28T21:22:26.365Z,101266.00
2022-08-28T21:24:52.919Z,101268.25
2022-08-28T21:27:20.952Z,101264.13
2022-08-28T21:29:47.718Z,101263.88
2022-08-28T21:32:14.524Z,101273.94
2022-08-28T21:34:41.054Z,101278.03
2022-08-28T21:37:07.752Z,101276.78
2022-08-28T21:39:34.921Z,101283.25
2022-08-28T21:42:01.525Z,101285.34
2022-08-28T21:44:29.717Z,101281.44
2022-08-28T21:46:56.358Z,101284.56
2022-08-28T21:49:23.007Z,101292.97
2022-08-28T21:51:51.570Z,101286.09
2022-08-28T21:54:18.308Z,101296.47
2022-08-28T21:56:45.283Z,101297.88
2022-08-28T21:59:12.341Z,101300.97
2022-08-28T22:01:40.397Z,101307.69
2022-08-28T22:04:07.298Z,101306.25
2022-08-28T22:06:33.994Z,101301.22
2022-08-28T22:09:00.902Z,101301.81
2022-08-28T22:11:28.117Z,101301.22
2022-08-28T22:13:55.725Z,101298.16
2022-08-28T22:16:22.915Z,101308.38
2022-08-28T22:18:51.283Z,101300.69
2022-08-28T22:21:21.968Z,101312.97
2022-08-28T22:23:48.612Z,101311.16
2022-08-28T22:26:17.829Z,101290.72
2022-08-28T22:28:44.976Z,101312.84
2022-08-28T22:31:11.622Z,101322.19
2022-08-28T22:33:38.629Z,101326.66
2022-08-28T22:36:07.060Z,101321.72
2022-08-28T22:38:33.662Z,101299.66
2022-08-28T22:41:00.228Z,101322.28
2022-08-28T22:43:26.902Z,101326.31
2022-08-28T22:45:53.649Z,101295.13
2022-08-28T22:48:20.361Z,101333.56
2022-08-28T22:50:47.841Z,101318.00
2022-08-28T22:53:17.922Z,101328.50
2022-08-28T22:55:44.701Z,101313.94
2022-08-28T22:58:11.798Z,101330.41
2022-08-28T23:00:39.686Z,101332.75
2022-08-28T23:03:06.392Z,101321.91
2022-08-28T23:05:33.519Z,101329.44
2022-08-28T23:08:00.210Z,101326.22
2022-08-28T23:10:48.393Z,101326.34
2022-08-28T23:13:15.242Z,101322.44
2022-08-28T23:15:42.065Z,101327.16
2022-08-28T23:18:08.820Z,101332.84
2022-08-28T23:20:35.744Z,101314.88
2022-08-28T23:23:02.413Z,101322.13
2022-08-28T23:25:30.329Z,101311.16
2022-08-28T23:27:56.921Z,101330.06
2022-08-28T23:30:24.348Z,101323.03
2022-08-28T23:32:51.048Z,101321.88
2022-08-28T23:35:18.909Z,101317.53
2022-08-28T23:37:48.896Z,101305.31
2022-08-28T23:40:21.589Z,101324.47
2022-08-28T23:42:49.918Z,101321.38
2022-08-28T23:45:17.216Z,101312.50
2022-08-28T23:47:44.510Z,101320.59
2022-08-28T23:50:13.684Z,101323.34
2022-08-28T23:52:40.711Z,101323.88
2022-08-28T23:55:10.629Z,101317.38
2022-08-28T23:57:37.299Z,101321.25
